Terminal Aerodrome Forecast
Issued by NWS

Home | Current Version | Previous Version | Text Only | Print | Product List | Glossary On
Versions: 1 2 3 4 5 6 7 8 9 10 11 12 13 14 15 16 17
000
FTAK31 PANC 211720
TAFACD
TAF
PACD 211720Z 2118/2218 32015KT 6SM -SHSN SCT020 BKN040
      TEMPO 2118/2122 5SM -SHSN BR BKN030
     FM212200 31014KT 6SM -SHSN BR SCT025 BKN040
     FM220600 29010KT P6SM -SHSN BKN035
     FM221200 28006KT P6SM -SHSN BKN025=

USA.gov is the U.S. government's official web portal to all federal, state and local government web resources and services.